Upton, Kentucky
Current Conditions -  °F | °C
As of 1:15 PM on Friday 19 Dec 2014 (Local Time) from KGLW Reporting Station
Clear Clear  
Wind Chill: 36°   Ceiling: Unl
Heat Index: 36°   Visibility: 10mi
Dew Point: 26°   Wind: 3mph
Humidity: 68%   Direction: 70°ENE
Pressure: 30.25"   Gusts: NA
Location:  37.46°N, 85.9°W
Report Text: KGLW 191815Z AUTO 07003KT 10SM CLR 02/M03 A3025 RMK AO2 T00211033
Loading
Personal Weather Stations






























Interactive Weather Map New forecast layout! Learn more

10-Day Weather Forecast

Advertisements
Track Severe Weather on mobile